sensor_id;sensor_type;location;lat;lon;timestamp;P1;durP1;ratioP1;P2;durP2;ratioP2
15669;SDS011;18524;45.190;5.732;2023-04-03T00:01:41;0.40;;;0.40;;
15669;SDS011;18524;45.190;5.732;2023-04-03T00:06:32;0.50;;;0.50;;
15669;SDS011;18524;45.190;5.732;2023-04-03T00:11:22;0.60;;;0.50;;
15669;SDS011;18524;45.190;5.732;2023-04-03T00:16:13;0.70;;;0.57;;
15669;SDS011;18524;45.190;5.732;2023-04-03T00:21:04;0.80;;;0.70;;
15669;SDS011;18524;45.190;5.732;2023-04-03T00:25:54;0.60;;;0.50;;
15669;SDS011;18524;45.190;5.732;2023-04-03T00:30:45;0.80;;;0.50;;
15669;SDS011;18524;45.190;5.732;2023-04-03T00:35:35;0.60;;;0.53;;
15669;SDS011;18524;45.190;5.732;2023-04-03T00:40:26;0.50;;;0.50;;
15669;SDS011;18524;45.190;5.732;2023-04-03T00:50:08;0.55;;;0.50;;
15669;SDS011;18524;45.190;5.732;2023-04-03T00:54:59;0.60;;;0.50;;
15669;SDS011;18524;45.190;5.732;2023-04-03T00:59:57;0.50;;;0.50;;
15669;SDS011;18524;45.190;5.732;2023-04-03T01:04:54;1.13;;;0.57;;
15669;SDS011;18524;45.190;5.732;2023-04-03T01:09:45;0.40;;;0.40;;
15669;SDS011;18524;45.190;5.732;2023-04-03T01:14:38;0.50;;;0.50;;
15669;SDS011;18524;45.190;5.732;2023-04-03T01:19:29;1.03;;;0.70;;
15669;SDS011;18524;45.190;5.732;2023-04-03T01:24:36;1.07;;;0.60;;
15669;SDS011;18524;45.190;5.732;2023-04-03T01:29:28;0.70;;;0.60;;
15669;SDS011;18524;45.190;5.732;2023-04-03T01:34:19;0.50;;;0.50;;
15669;SDS011;18524;45.190;5.732;2023-04-03T01:39:10;0.50;;;0.50;;
15669;SDS011;18524;45.190;5.732;2023-04-03T01:44:01;0.60;;;0.60;;
15669;SDS011;18524;45.190;5.732;2023-04-03T01:48:52;1.43;;;0.70;;
15669;SDS011;18524;45.190;5.732;2023-04-03T01:53:42;0.97;;;0.70;;
15669;SDS011;18524;45.190;5.732;2023-04-03T01:58:33;1.20;;;1.10;;
15669;SDS011;18524;45.190;5.732;2023-04-03T02:03:23;1.10;;;1.00;;
15669;SDS011;18524;45.190;5.732;2023-04-03T02:08:14;0.93;;;0.90;;
15669;SDS011;18524;45.190;5.732;2023-04-03T02:13:04;0.83;;;0.83;;
15669;SDS011;18524;45.190;5.732;2023-04-03T02:17:55;1.47;;;0.93;;
15669;SDS011;18524;45.190;5.732;2023-04-03T02:22:46;1.33;;;1.00;;
15669;SDS011;18524;45.190;5.732;2023-04-03T02:27:37;1.53;;;1.30;;
15669;SDS011;18524;45.190;5.732;2023-04-03T02:32:27;1.17;;;1.07;;
15669;SDS011;18524;45.190;5.732;2023-04-03T02:37:18;1.13;;;1.03;;
15669;SDS011;18524;45.190;5.732;2023-04-03T02:42:08;1.50;;;1.20;;
15669;SDS011;18524;45.190;5.732;2023-04-03T02:46:59;1.20;;;1.10;;
15669;SDS011;18524;45.190;5.732;2023-04-03T02:51:49;1.20;;;1.10;;
15669;SDS011;18524;45.190;5.732;2023-04-03T02:56:41;1.20;;;1.10;;
15669;SDS011;18524;45.190;5.732;2023-04-03T03:01:31;1.07;;;1.00;;
15669;SDS011;18524;45.190;5.732;2023-04-03T03:06:22;1.37;;;1.23;;
15669;SDS011;18524;45.190;5.732;2023-04-03T03:11:13;0.83;;;0.80;;
15669;SDS011;18524;45.190;5.732;2023-04-03T03:16:03;1.00;;;0.87;;
15669;SDS011;18524;45.190;5.732;2023-04-03T03:20:58;1.20;;;1.10;;
15669;SDS011;18524;45.190;5.732;2023-04-03T03:25:53;1.30;;;1.20;;
15669;SDS011;18524;45.190;5.732;2023-04-03T03:30:48;1.10;;;1.10;;
15669;SDS011;18524;45.190;5.732;2023-04-03T03:35:38;1.30;;;1.20;;
15669;SDS011;18524;45.190;5.732;2023-04-03T03:40:28;1.27;;;1.17;;
15669;SDS011;18524;45.190;5.732;2023-04-03T03:45:19;1.30;;;1.20;;
15669;SDS011;18524;45.190;5.732;2023-04-03T03:50:09;1.40;;;1.30;;
15669;SDS011;18524;45.190;5.732;2023-04-03T03:55:00;1.23;;;1.13;;
15669;SDS011;18524;45.190;5.732;2023-04-03T03:59:50;1.50;;;1.40;;
15669;SDS011;18524;45.190;5.732;2023-04-03T04:04:41;1.60;;;1.50;;
15669;SDS011;18524;45.190;5.732;2023-04-03T04:09:32;1.90;;;1.80;;
15669;SDS011;18524;45.190;5.732;2023-04-03T04:14:22;2.00;;;1.80;;
15669;SDS011;18524;45.190;5.732;2023-04-03T04:19:12;2.27;;;2.13;;
15669;SDS011;18524;45.190;5.732;2023-04-03T04:24:03;2.50;;;2.30;;
15669;SDS011;18524;45.190;5.732;2023-04-03T04:28:54;2.77;;;2.57;;
15669;SDS011;18524;45.190;5.732;2023-04-03T04:33:44;3.13;;;2.73;;
15669;SDS011;18524;45.190;5.732;2023-04-03T04:38:35;3.30;;;3.10;;
15669;SDS011;18524;45.190;5.732;2023-04-03T04:43:25;4.13;;;3.60;;
15669;SDS011;18524;45.190;5.732;2023-04-03T04:48:16;3.23;;;3.03;;
15669;SDS011;18524;45.190;5.732;2023-04-03T04:53:06;3.27;;;3.00;;
15669;SDS011;18524;45.190;5.732;2023-04-03T04:57:56;2.90;;;2.70;;
15669;SDS011;18524;45.190;5.732;2023-04-03T05:02:47;3.33;;;2.60;;
15669;SDS011;18524;45.190;5.732;2023-04-03T05:07:37;2.93;;;2.73;;
15669;SDS011;18524;45.190;5.732;2023-04-03T05:12:28;3.30;;;3.10;;
15669;SDS011;18524;45.190;5.732;2023-04-03T05:17:18;3.50;;;3.20;;
15669;SDS011;18524;45.190;5.732;2023-04-03T05:22:09;3.47;;;3.17;;
15669;SDS011;18524;45.190;5.732;2023-04-03T05:26:59;3.30;;;3.00;;
15669;SDS011;18524;45.190;5.732;2023-04-03T05:31:50;3.17;;;2.97;;
15669;SDS011;18524;45.190;5.732;2023-04-03T05:36:40;2.93;;;2.73;;
15669;SDS011;18524;45.190;5.732;2023-04-03T05:41:31;2.73;;;2.53;;
15669;SDS011;18524;45.190;5.732;2023-04-03T05:46:21;2.90;;;2.70;;
15669;SDS011;18524;45.190;5.732;2023-04-03T05:51:16;2.77;;;2.57;;
15669;SDS011;18524;45.190;5.732;2023-04-03T05:56:08;3.00;;;2.80;;
15669;SDS011;18524;45.190;5.732;2023-04-03T06:00:59;3.80;;;3.50;;
15669;SDS011;18524;45.190;5.732;2023-04-03T06:05:49;3.47;;;3.17;;
15669;SDS011;18524;45.190;5.732;2023-04-03T06:10:40;4.43;;;3.40;;
15669;SDS011;18524;45.190;5.732;2023-04-03T06:15:30;3.33;;;3.03;;
15669;SDS011;18524;45.190;5.732;2023-04-03T06:20:21;3.30;;;3.00;;
15669;SDS011;18524;45.190;5.732;2023-04-03T06:25:12;3.30;;;3.10;;
15669;SDS011;18524;45.190;5.732;2023-04-03T06:30:02;3.43;;;3.13;;
15669;SDS011;18524;45.190;5.732;2023-04-03T06:34:53;3.13;;;2.93;;
15669;SDS011;18524;45.190;5.732;2023-04-03T06:39:43;3.07;;;2.80;;
15669;SDS011;18524;45.190;5.732;2023-04-03T06:44:35;2.10;;;1.90;;
15669;SDS011;18524;45.190;5.732;2023-04-03T06:49:25;1.70;;;1.60;;
15669;SDS011;18524;45.190;5.732;2023-04-03T06:54:16;1.60;;;1.50;;
15669;SDS011;18524;45.190;5.732;2023-04-03T06:59:06;1.43;;;1.33;;
15669;SDS011;18524;45.190;5.732;2023-04-03T07:03:57;1.63;;;1.50;;
15669;SDS011;18524;45.190;5.732;2023-04-03T07:08:47;1.23;;;1.13;;
15669;SDS011;18524;45.190;5.732;2023-04-03T07:13:40;1.30;;;1.20;;
15669;SDS011;18524;45.190;5.732;2023-04-03T07:18:31;1.53;;;1.30;;
15669;SDS011;18524;45.190;5.732;2023-04-03T07:23:23;1.37;;;1.27;;
15669;SDS011;18524;45.190;5.732;2023-04-03T07:28:14;0.87;;;0.87;;
15669;SDS011;18524;45.190;5.732;2023-04-03T07:33:06;1.53;;;0.90;;
15669;SDS011;18524;45.190;5.732;2023-04-03T07:37:56;1.00;;;0.90;;
15669;SDS011;18524;45.190;5.732;2023-04-03T07:42:47;1.67;;;1.00;;
15669;SDS011;18524;45.190;5.732;2023-04-03T07:47:37;0.90;;;0.90;;
15669;SDS011;18524;45.190;5.732;2023-04-03T07:52:28;2.40;;;1.40;;
15669;SDS011;18524;45.190;5.732;2023-04-03T07:57:18;1.60;;;1.50;;
15669;SDS011;18524;45.190;5.732;2023-04-03T08:02:12;1.63;;;1.53;;
15669;SDS011;18524;45.190;5.732;2023-04-03T08:07:02;2.70;;;1.97;;
15669;SDS011;18524;45.190;5.732;2023-04-03T08:11:53;2.10;;;2.00;;
15669;SDS011;18524;45.190;5.732;2023-04-03T08:16:44;2.40;;;2.27;;
15669;SDS011;18524;45.190;5.732;2023-04-03T08:21:36;2.27;;;2.07;;
15669;SDS011;18524;45.190;5.732;2023-04-03T08:26:26;3.03;;;2.27;;
15669;SDS011;18524;45.190;5.732;2023-04-03T08:31:18;1.80;;;1.70;;
15669;SDS011;18524;45.190;5.732;2023-04-03T08:36:18;2.53;;;2.07;;
15669;SDS011;18524;45.190;5.732;2023-04-03T08:41:14;2.33;;;2.20;;
15669;SDS011;18524;45.190;5.732;2023-04-03T08:46:11;3.17;;;2.90;;
15669;SDS011;18524;45.190;5.732;2023-04-03T08:51:09;2.70;;;2.37;;
15669;SDS011;18524;45.190;5.732;2023-04-03T08:56:10;3.13;;;2.93;;
15669;SDS011;18524;45.190;5.732;2023-04-03T09:11:09;4.03;;;3.47;;
15669;SDS011;18524;45.190;5.732;2023-04-03T09:16:25;3.20;;;3.00;;
15669;SDS011;18524;45.190;5.732;2023-04-03T09:21:40;3.30;;;3.10;;
15669;SDS011;18524;45.190;5.732;2023-04-03T09:26:36;3.50;;;3.30;;
15669;SDS011;18524;45.190;5.732;2023-04-03T09:31:30;3.40;;;2.73;;
15669;SDS011;18524;45.190;5.732;2023-04-03T09:36:41;3.20;;;3.00;;
15669;SDS011;18524;45.190;5.732;2023-04-03T09:41:32;2.93;;;2.73;;
15669;SDS011;18524;45.190;5.732;2023-04-03T09:46:33;3.50;;;3.07;;
15669;SDS011;18524;45.190;5.732;2023-04-03T09:51:25;3.23;;;3.03;;
15669;SDS011;18524;45.190;5.732;2023-04-03T09:56:22;2.80;;;2.60;;
15669;SDS011;18524;45.190;5.732;2023-04-03T10:01:28;3.90;;;3.10;;
15669;SDS011;18524;45.190;5.732;2023-04-03T10:06:23;3.20;;;2.90;;
15669;SDS011;18524;45.190;5.732;2023-04-03T10:11:17;3.07;;;2.87;;
15669;SDS011;18524;45.190;5.732;2023-04-03T10:16:11;2.90;;;2.70;;
15669;SDS011;18524;45.190;5.732;2023-04-03T10:21:05;2.90;;;2.70;;
15669;SDS011;18524;45.190;5.732;2023-04-03T10:31:14;2.93;;;2.73;;
15669;SDS011;18524;45.190;5.732;2023-04-03T10:36:16;3.70;;;3.07;;
15669;SDS011;18524;45.190;5.732;2023-04-03T11:01:21;2.90;;;2.10;;
15669;SDS011;18524;45.190;5.732;2023-04-03T11:06:17;2.80;;;2.50;;
15669;SDS011;18524;45.190;5.732;2023-04-03T11:11:19;1.87;;;1.77;;
15669;SDS011;18524;45.190;5.732;2023-04-03T11:16:16;1.90;;;1.80;;
15669;SDS011;18524;45.190;5.732;2023-04-03T11:26:18;1.33;;;1.23;;
15669;SDS011;18524;45.190;5.732;2023-04-03T11:36:19;2.00;;;1.50;;
15669;SDS011;18524;45.190;5.732;2023-04-03T11:41:13;1.83;;;1.37;;
15669;SDS011;18524;45.190;5.732;2023-04-03T11:46:06;2.10;;;1.30;;
15669;SDS011;18524;45.190;5.732;2023-04-03T11:50:58;1.60;;;1.50;;
15669;SDS011;18524;45.190;5.732;2023-04-03T12:05:52;1.00;;;1.00;;
15669;SDS011;18524;45.190;5.732;2023-04-03T12:10:42;1.53;;;1.10;;
15669;SDS011;18524;45.190;5.732;2023-04-03T12:15:58;1.30;;;1.20;;
15669;SDS011;18524;45.190;5.732;2023-04-03T12:20:54;1.70;;;1.57;;
15669;SDS011;18524;45.190;5.732;2023-04-03T12:25:50;1.73;;;1.30;;
15669;SDS011;18524;45.190;5.732;2023-04-03T12:30:41;0.90;;;0.90;;
15669;SDS011;18524;45.190;5.732;2023-04-03T12:46:24;2.20;;;1.87;;
15669;SDS011;18524;45.190;5.732;2023-04-03T12:51:29;2.10;;;1.90;;
15669;SDS011;18524;45.190;5.732;2023-04-03T12:56:30;2.23;;;1.90;;
15669;SDS011;18524;45.190;5.732;2023-04-03T13:01:25;2.33;;;2.17;;
15669;SDS011;18524;45.190;5.732;2023-04-03T13:11:40;3.07;;;2.87;;
15669;SDS011;18524;45.190;5.732;2023-04-03T13:16:32;3.73;;;3.43;;
15669;SDS011;18524;45.190;5.732;2023-04-03T13:21:27;4.47;;;4.07;;
15669;SDS011;18524;45.190;5.732;2023-04-03T13:26:21;4.57;;;4.17;;
15669;SDS011;18524;45.190;5.732;2023-04-03T13:36:22;4.10;;;3.80;;
15669;SDS011;18524;45.190;5.732;2023-04-03T13:41:23;4.30;;;3.90;;
15669;SDS011;18524;45.190;5.732;2023-04-03T13:46:28;4.57;;;3.43;;
15669;SDS011;18524;45.190;5.732;2023-04-03T13:51:20;4.10;;;3.77;;
15669;SDS011;18524;45.190;5.732;2023-04-03T13:56:35;4.20;;;3.90;;
15669;SDS011;18524;45.190;5.732;2023-04-03T14:01:33;4.20;;;3.90;;
15669;SDS011;18524;45.190;5.732;2023-04-03T14:06:44;4.20;;;3.80;;
15669;SDS011;18524;45.190;5.732;2023-04-03T14:11:35;3.90;;;3.60;;
15669;SDS011;18524;45.190;5.732;2023-04-03T14:16:28;4.30;;;3.90;;
15669;SDS011;18524;45.190;5.732;2023-04-03T14:21:21;5.00;;;4.50;;
15669;SDS011;18524;45.190;5.732;2023-04-03T14:26:16;5.23;;;4.73;;
15669;SDS011;18524;45.190;5.732;2023-04-03T14:31:09;4.90;;;4.50;;
15669;SDS011;18524;45.190;5.732;2023-04-03T14:36:01;4.83;;;4.43;;
15669;SDS011;18524;45.190;5.732;2023-04-03T14:40:55;4.87;;;4.40;;
15669;SDS011;18524;45.190;5.732;2023-04-03T14:45:47;4.90;;;4.50;;
15669;SDS011;18524;45.190;5.732;2023-04-03T14:50:39;4.90;;;4.50;;
15669;SDS011;18524;45.190;5.732;2023-04-03T14:55:29;4.77;;;4.37;;
15669;SDS011;18524;45.190;5.732;2023-04-03T15:00:21;5.07;;;4.33;;
15669;SDS011;18524;45.190;5.732;2023-04-03T15:05:12;4.77;;;4.30;;
15669;SDS011;18524;45.190;5.732;2023-04-03T15:15:08;5.10;;;4.70;;
15669;SDS011;18524;45.190;5.732;2023-04-03T15:19:59;4.63;;;4.23;;
15669;SDS011;18524;45.190;5.732;2023-04-03T15:24:50;4.43;;;4.00;;
15669;SDS011;18524;45.190;5.732;2023-04-03T15:29:41;4.67;;;4.37;;
15669;SDS011;18524;45.190;5.732;2023-04-03T15:34:32;4.23;;;3.93;;
15669;SDS011;18524;45.190;5.732;2023-04-03T15:39:24;4.60;;;4.20;;
15669;SDS011;18524;45.190;5.732;2023-04-03T15:44:14;4.47;;;4.10;;
15669;SDS011;18524;45.190;5.732;2023-04-03T15:49:07;4.40;;;3.97;;
15669;SDS011;18524;45.190;5.732;2023-04-03T15:53:57;3.60;;;3.40;;
15669;SDS011;18524;45.190;5.732;2023-04-03T15:58:48;3.97;;;3.67;;
15669;SDS011;18524;45.190;5.732;2023-04-03T16:03:39;3.80;;;3.50;;
15669;SDS011;18524;45.190;5.732;2023-04-03T16:08:35;3.23;;;2.83;;
15669;SDS011;18524;45.190;5.732;2023-04-03T16:13:26;2.97;;;2.77;;
15669;SDS011;18524;45.190;5.732;2023-04-03T16:18:17;3.83;;;3.20;;
15669;SDS011;18524;45.190;5.732;2023-04-03T16:23:08;2.97;;;2.60;;
15669;SDS011;18524;45.190;5.732;2023-04-03T16:27:58;2.50;;;2.30;;
15669;SDS011;18524;45.190;5.732;2023-04-03T16:32:49;2.20;;;2.00;;
15669;SDS011;18524;45.190;5.732;2023-04-03T16:37:39;1.90;;;1.70;;
15669;SDS011;18524;45.190;5.732;2023-04-03T16:42:30;1.67;;;1.53;;
15669;SDS011;18524;45.190;5.732;2023-04-03T16:47:20;2.77;;;1.50;;
15669;SDS011;18524;45.190;5.732;2023-04-03T16:52:11;2.30;;;1.70;;
15669;SDS011;18524;45.190;5.732;2023-04-03T16:57:01;2.13;;;1.90;;
15669;SDS011;18524;45.190;5.732;2023-04-03T17:01:52;2.10;;;1.90;;
15669;SDS011;18524;45.190;5.732;2023-04-03T17:06:42;2.30;;;1.73;;
15669;SDS011;18524;45.190;5.732;2023-04-03T17:11:33;1.73;;;1.63;;
15669;SDS011;18524;45.190;5.732;2023-04-03T17:16:23;2.10;;;2.00;;
15669;SDS011;18524;45.190;5.732;2023-04-03T17:21:14;2.27;;;1.73;;
15669;SDS011;18524;45.190;5.732;2023-04-03T17:26:06;2.13;;;1.93;;
15669;SDS011;18524;45.190;5.732;2023-04-03T17:30:57;2.10;;;1.87;;
15669;SDS011;18524;45.190;5.732;2023-04-03T17:35:49;2.10;;;1.60;;
15669;SDS011;18524;45.190;5.732;2023-04-03T17:40:39;1.90;;;1.50;;
15669;SDS011;18524;45.190;5.732;2023-04-03T17:45:30;1.37;;;1.27;;
15669;SDS011;18524;45.190;5.732;2023-04-03T17:50:20;1.60;;;1.50;;
15669;SDS011;18524;45.190;5.732;2023-04-03T17:55:11;1.60;;;1.50;;
15669;SDS011;18524;45.190;5.732;2023-04-03T18:00:02;2.10;;;1.50;;
15669;SDS011;18524;45.190;5.732;2023-04-03T18:04:53;1.83;;;1.63;;
15669;SDS011;18524;45.190;5.732;2023-04-03T18:09:44;1.87;;;1.67;;
15669;SDS011;18524;45.190;5.732;2023-04-03T18:14:36;2.37;;;1.80;;
15669;SDS011;18524;45.190;5.732;2023-04-03T18:19:28;2.00;;;1.80;;
15669;SDS011;18524;45.190;5.732;2023-04-03T18:24:18;2.10;;;2.00;;
15669;SDS011;18524;45.190;5.732;2023-04-03T18:29:10;2.80;;;2.40;;
15669;SDS011;18524;45.190;5.732;2023-04-03T18:34:01;1.83;;;1.73;;
15669;SDS011;18524;45.190;5.732;2023-04-03T18:38:52;2.23;;;2.03;;
15669;SDS011;18524;45.190;5.732;2023-04-03T18:43:44;2.10;;;2.00;;
15669;SDS011;18524;45.190;5.732;2023-04-03T18:48:35;1.77;;;1.67;;
15669;SDS011;18524;45.190;5.732;2023-04-03T18:53:29;2.07;;;1.87;;
15669;SDS011;18524;45.190;5.732;2023-04-03T18:58:19;1.70;;;1.60;;
15669;SDS011;18524;45.190;5.732;2023-04-03T19:03:10;2.67;;;1.70;;
15669;SDS011;18524;45.190;5.732;2023-04-03T19:08:02;1.93;;;1.80;;
15669;SDS011;18524;45.190;5.732;2023-04-03T19:12:52;2.30;;;1.90;;
15669;SDS011;18524;45.190;5.732;2023-04-03T19:17:43;2.83;;;2.07;;
15669;SDS011;18524;45.190;5.732;2023-04-03T19:22:34;2.80;;;2.60;;
15669;SDS011;18524;45.190;5.732;2023-04-03T19:27:24;3.60;;;2.80;;
15669;SDS011;18524;45.190;5.732;2023-04-03T19:32:15;2.83;;;2.50;;
15669;SDS011;18524;45.190;5.732;2023-04-03T19:37:05;3.60;;;2.67;;
15669;SDS011;18524;45.190;5.732;2023-04-03T19:41:56;2.20;;;2.00;;
15669;SDS011;18524;45.190;5.732;2023-04-03T19:46:47;2.23;;;2.00;;
15669;SDS011;18524;45.190;5.732;2023-04-03T19:51:38;2.70;;;2.20;;
15669;SDS011;18524;45.190;5.732;2023-04-03T19:56:28;2.80;;;2.30;;
15669;SDS011;18524;45.190;5.732;2023-04-03T20:01:20;2.63;;;2.43;;
15669;SDS011;18524;45.190;5.732;2023-04-03T20:06:13;2.60;;;2.40;;
15669;SDS011;18524;45.190;5.732;2023-04-03T20:11:04;3.77;;;3.00;;
15669;SDS011;18524;45.190;5.732;2023-04-03T20:15:54;3.20;;;2.90;;
15669;SDS011;18524;45.190;5.732;2023-04-03T20:25:43;3.33;;;2.90;;
15669;SDS011;18524;45.190;5.732;2023-04-03T20:30:35;3.50;;;3.20;;
15669;SDS011;18524;45.190;5.732;2023-04-03T20:35:25;2.97;;;2.67;;
15669;SDS011;18524;45.190;5.732;2023-04-03T20:40:17;3.37;;;3.00;;
15669;SDS011;18524;45.190;5.732;2023-04-03T20:45:07;3.17;;;2.87;;
15669;SDS011;18524;45.190;5.732;2023-04-03T20:49:58;3.67;;;3.37;;
15669;SDS011;18524;45.190;5.732;2023-04-03T20:54:48;4.20;;;3.17;;
15669;SDS011;18524;45.190;5.732;2023-04-03T20:59:39;3.30;;;3.00;;
15669;SDS011;18524;45.190;5.732;2023-04-03T21:04:36;3.77;;;3.23;;
15669;SDS011;18524;45.190;5.732;2023-04-03T21:20:27;3.40;;;3.10;;
15669;SDS011;18524;45.190;5.732;2023-04-03T21:25:17;5.27;;;3.50;;
15669;SDS011;18524;45.190;5.732;2023-04-03T21:30:09;3.53;;;3.13;;
15669;SDS011;18524;45.190;5.732;2023-04-03T21:34:59;3.70;;;3.40;;
15669;SDS011;18524;45.190;5.732;2023-04-03T21:39:50;3.70;;;3.40;;
15669;SDS011;18524;45.190;5.732;2023-04-03T21:44:40;3.50;;;3.20;;
15669;SDS011;18524;45.190;5.732;2023-04-03T21:49:30;3.83;;;3.53;;
15669;SDS011;18524;45.190;5.732;2023-04-03T21:54:21;4.23;;;3.17;;
15669;SDS011;18524;45.190;5.732;2023-04-03T21:59:11;3.90;;;3.33;;
15669;SDS011;18524;45.190;5.732;2023-04-03T22:04:02;3.80;;;3.50;;
15669;SDS011;18524;45.190;5.732;2023-04-03T22:08:52;3.83;;;3.53;;
15669;SDS011;18524;45.190;5.732;2023-04-03T22:13:43;3.67;;;3.03;;
15669;SDS011;18524;45.190;5.732;2023-04-03T22:18:34;3.60;;;3.30;;
15669;SDS011;18524;45.190;5.732;2023-04-03T22:23:25;4.00;;;3.30;;
15669;SDS011;18524;45.190;5.732;2023-04-03T22:28:16;3.77;;;3.47;;
15669;SDS011;18524;45.190;5.732;2023-04-03T22:33:06;3.60;;;3.30;;
15669;SDS011;18524;45.190;5.732;2023-04-03T22:37:56;3.50;;;3.20;;
15669;SDS011;18524;45.190;5.732;2023-04-03T22:42:47;3.50;;;3.20;;
15669;SDS011;18524;45.190;5.732;2023-04-03T22:47:37;3.77;;;3.47;;
15669;SDS011;18524;45.190;5.732;2023-04-03T22:52:28;4.73;;;3.10;;
15669;SDS011;18524;45.190;5.732;2023-04-03T22:57:18;3.60;;;3.30;;
15669;SDS011;18524;45.190;5.732;2023-04-03T23:02:09;3.97;;;3.57;;
15669;SDS011;18524;45.190;5.732;2023-04-03T23:06:59;3.93;;;3.43;;
15669;SDS011;18524;45.190;5.732;2023-04-03T23:11:49;3.87;;;3.50;;
15669;SDS011;18524;45.190;5.732;2023-04-03T23:16:40;4.13;;;3.73;;
15669;SDS011;18524;45.190;5.732;2023-04-03T23:21:31;4.53;;;4.13;;
15669;SDS011;18524;45.190;5.732;2023-04-03T23:26:21;3.90;;;3.60;;
15669;SDS011;18524;45.190;5.732;2023-04-03T23:31:13;4.43;;;4.03;;
15669;SDS011;18524;45.190;5.732;2023-04-03T23:36:06;4.23;;;3.83;;
15669;SDS011;18524;45.190;5.732;2023-04-03T23:40:57;4.17;;;3.77;;
15669;SDS011;18524;45.190;5.732;2023-04-03T23:45:48;4.10;;;3.70;;
15669;SDS011;18524;45.190;5.732;2023-04-03T23:50:38;5.37;;;4.17;;
15669;SDS011;18524;45.190;5.732;2023-04-03T23:55:29;5.03;;;4.10;;
